sensor_id;sensor_type;location;lat;lon;timestamp;pressure;altitude;pressure_sealevel;temperature;humidity
13690;BME280;6917;52.194;9.894;2023-06-14T00:02:07;100481.72;;;15.23;64.38
13690;BME280;6917;52.194;9.894;2023-06-14T00:04:34;100479.19;;;15.30;64.35
13690;BME280;6917;52.194;9.894;2023-06-14T00:07:00;100484.22;;;15.28;64.25
13690;BME280;6917;52.194;9.894;2023-06-14T00:09:25;100479.88;;;15.27;64.49
13690;BME280;6917;52.194;9.894;2023-06-14T00:11:50;100481.56;;;15.07;64.18
13690;BME280;6917;52.194;9.894;2023-06-14T00:14:16;100498.03;;;14.95;64.84
13690;BME280;6917;52.194;9.894;2023-06-14T00:16:41;100496.88;;;14.96;65.51
13690;BME280;6917;52.194;9.894;2023-06-14T00:19:08;100496.47;;;15.06;65.40
13690;BME280;6917;52.194;9.894;2023-06-14T00:21:33;100500.66;;;14.91;65.41
13690;BME280;6917;52.194;9.894;2023-06-14T00:24:00;100502.94;;;14.89;65.50
13690;BME280;6917;52.194;9.894;2023-06-14T00:26:26;100504.75;;;14.85;65.68
13690;BME280;6917;52.194;9.894;2023-06-14T00:28:52;100500.66;;;14.91;65.71
13690;BME280;6917;52.194;9.894;2023-06-14T00:31:17;100507.97;;;14.87;65.66
13690;BME280;6917;52.194;9.894;2023-06-14T00:33:43;100503.66;;;14.65;66.09
13690;BME280;6917;52.194;9.894;2023-06-14T00:36:08;100509.84;;;14.62;66.26
13690;BME280;6917;52.194;9.894;2023-06-14T00:38:34;100502.72;;;14.61;66.44
13690;BME280;6917;52.194;9.894;2023-06-14T00:40:59;100500.16;;;14.56;66.42
13690;BME280;6917;52.194;9.894;2023-06-14T00:43:25;100508.75;;;14.54;66.59
13690;BME280;6917;52.194;9.894;2023-06-14T00:45:50;100498.09;;;14.53;66.70
13690;BME280;6917;52.194;9.894;2023-06-14T00:48:16;100507.63;;;14.55;66.78
13690;BME280;6917;52.194;9.894;2023-06-14T00:50:42;100504.66;;;14.61;66.89
13690;BME280;6917;52.194;9.894;2023-06-14T00:53:11;100509.97;;;14.66;66.65
13690;BME280;6917;52.194;9.894;2023-06-14T00:55:37;100509.97;;;14.66;66.66
13690;BME280;6917;52.194;9.894;2023-06-14T00:58:02;100510.75;;;14.66;66.56
13690;BME280;6917;52.194;9.894;2023-06-14T01:00:28;100512.59;;;14.62;66.89
13690;BME280;6917;52.194;9.894;2023-06-14T01:02:53;100513.22;;;14.59;66.77
13690;BME280;6917;52.194;9.894;2023-06-14T01:05:20;100513.56;;;14.37;67.27
13690;BME280;6917;52.194;9.894;2023-06-14T01:08:06;100511.06;;;14.23;67.72
13690;BME280;6917;52.194;9.894;2023-06-14T01:10:57;100512.69;;;14.24;67.75
13690;BME280;6917;52.194;9.894;2023-06-14T01:13:38;100509.72;;;14.08;68.09
13690;BME280;6917;52.194;9.894;2023-06-14T01:16:05;100519.94;;;13.99;68.51
13690;BME280;6917;52.194;9.894;2023-06-14T01:18:31;100515.78;;;13.93;68.91
13690;BME280;6917;52.194;9.894;2023-06-14T01:20:57;100523.50;;;13.70;69.50
13690;BME280;6917;52.194;9.894;2023-06-14T01:23:23;100519.22;;;13.90;69.22
13690;BME280;6917;52.194;9.894;2023-06-14T01:25:50;100521.41;;;13.96;69.37
13690;BME280;6917;52.194;9.894;2023-06-14T01:28:21;100520.28;;;13.97;68.93
13690;BME280;6917;52.194;9.894;2023-06-14T01:30:53;100523.09;;;13.89;68.76
13690;BME280;6917;52.194;9.894;2023-06-14T01:33:26;100525.88;;;13.80;69.38
13690;BME280;6917;52.194;9.894;2023-06-14T01:35:53;100521.69;;;13.74;69.94
13690;BME280;6917;52.194;9.894;2023-06-14T01:38:23;100522.09;;;13.55;70.58
13690;BME280;6917;52.194;9.894;2023-06-14T01:40:49;100520.47;;;13.63;70.55
13690;BME280;6917;52.194;9.894;2023-06-14T01:43:16;100519.09;;;13.48;70.62
13690;BME280;6917;52.194;9.894;2023-06-14T01:45:44;100522.28;;;13.50;70.79
13690;BME280;6917;52.194;9.894;2023-06-14T01:48:11;100523.25;;;13.54;70.64
13690;BME280;6917;52.194;9.894;2023-06-14T01:50:36;100525.88;;;13.42;71.07
13690;BME280;6917;52.194;9.894;2023-06-14T01:53:02;100531.00;;;13.52;71.33
13690;BME280;6917;52.194;9.894;2023-06-14T01:55:27;100526.13;;;13.58;71.00
13690;BME280;6917;52.194;9.894;2023-06-14T01:57:53;100532.63;;;13.45;71.39
13690;BME280;6917;52.194;9.894;2023-06-14T02:00:19;100530.56;;;13.42;71.44
13690;BME280;6917;52.194;9.894;2023-06-14T02:02:45;100528.63;;;13.42;71.73
13690;BME280;6917;52.194;9.894;2023-06-14T02:05:11;100526.84;;;13.46;71.65
13690;BME280;6917;52.194;9.894;2023-06-14T02:07:36;100526.84;;;13.46;72.03
13690;BME280;6917;52.194;9.894;2023-06-14T02:10:05;100525.59;;;13.35;72.17
13690;BME280;6917;52.194;9.894;2023-06-14T02:12:30;100529.72;;;13.50;72.18
13690;BME280;6917;52.194;9.894;2023-06-14T02:14:56;100527.78;;;13.50;72.07
13690;BME280;6917;52.194;9.894;2023-06-14T02:17:22;100535.56;;;13.48;71.90
13690;BME280;6917;52.194;9.894;2023-06-14T02:19:47;100531.81;;;13.53;72.11
13690;BME280;6917;52.194;9.894;2023-06-14T02:22:13;100527.44;;;13.60;72.22
13690;BME280;6917;52.194;9.894;2023-06-14T02:24:40;100527.91;;;13.62;71.68
13690;BME280;6917;52.194;9.894;2023-06-14T02:27:05;100529.97;;;13.65;71.96
13690;BME280;6917;52.194;9.894;2023-06-14T02:29:31;100528.88;;;13.58;71.67
13690;BME280;6917;52.194;9.894;2023-06-14T02:31:57;100531.81;;;13.44;71.94
13690;BME280;6917;52.194;9.894;2023-06-14T02:34:22;100526.72;;;13.25;72.36
13690;BME280;6917;52.194;9.894;2023-06-14T02:36:47;100536.59;;;13.09;72.66
13690;BME280;6917;52.194;9.894;2023-06-14T02:39:13;100532.75;;;12.93;73.49
13690;BME280;6917;52.194;9.894;2023-06-14T02:41:39;100550.31;;;12.83;74.13
13690;BME280;6917;52.194;9.894;2023-06-14T02:44:04;100557.78;;;12.74;75.22
13690;BME280;6917;52.194;9.894;2023-06-14T02:46:30;100558.56;;;12.74;75.63
13690;BME280;6917;52.194;9.894;2023-06-14T02:48:55;100560.31;;;12.70;75.88
13690;BME280;6917;52.194;9.894;2023-06-14T02:51:20;100558.09;;;12.64;75.93
13690;BME280;6917;52.194;9.894;2023-06-14T02:53:46;100561.94;;;12.63;76.37
13690;BME280;6917;52.194;9.894;2023-06-14T02:56:11;100561.28;;;12.57;76.69
13690;BME280;6917;52.194;9.894;2023-06-14T02:58:37;100566.75;;;12.40;76.61
13690;BME280;6917;52.194;9.894;2023-06-14T03:01:04;100568.84;;;12.26;76.67
13690;BME280;6917;52.194;9.894;2023-06-14T03:03:31;100566.22;;;12.12;77.82
13690;BME280;6917;52.194;9.894;2023-06-14T03:05:56;100568.16;;;12.03;78.60
13690;BME280;6917;52.194;9.894;2023-06-14T03:08:22;100572.97;;;12.06;79.02
13690;BME280;6917;52.194;9.894;2023-06-14T03:10:52;100566.38;;;12.07;79.49
13690;BME280;6917;52.194;9.894;2023-06-14T03:13:18;100571.69;;;12.03;79.93
13690;BME280;6917;52.194;9.894;2023-06-14T03:15:47;100577.66;;;12.05;79.78
13690;BME280;6917;52.194;9.894;2023-06-14T03:18:14;100576.84;;;12.05;79.96
13690;BME280;6917;52.194;9.894;2023-06-14T03:20:41;100585.50;;;11.98;79.69
13690;BME280;6917;52.194;9.894;2023-06-14T03:23:07;100584.06;;;11.92;79.90
13690;BME280;6917;52.194;9.894;2023-06-14T03:25:33;100591.09;;;11.84;80.65
13690;BME280;6917;52.194;9.894;2023-06-14T03:28:03;100595.31;;;11.90;81.14
13690;BME280;6917;52.194;9.894;2023-06-14T03:30:32;100594.53;;;11.99;81.62
13690;BME280;6917;52.194;9.894;2023-06-14T03:32:58;100587.00;;;12.04;81.63
13690;BME280;6917;52.194;9.894;2023-06-14T03:35:26;100597.78;;;12.09;81.83
13690;BME280;6917;52.194;9.894;2023-06-14T03:37:52;100590.59;;;12.22;81.58
13690;BME280;6917;52.194;9.894;2023-06-14T03:40:18;100588.34;;;12.33;81.17
13690;BME280;6917;52.194;9.894;2023-06-14T03:42:45;100602.38;;;12.40;80.63
13690;BME280;6917;52.194;9.894;2023-06-14T03:45:10;100604.66;;;12.46;80.41
13690;BME280;6917;52.194;9.894;2023-06-14T03:47:36;100605.31;;;12.52;80.21
13690;BME280;6917;52.194;9.894;2023-06-14T03:50:04;100607.06;;;12.39;79.89
13690;BME280;6917;52.194;9.894;2023-06-14T03:52:31;100612.06;;;12.37;80.43
13690;BME280;6917;52.194;9.894;2023-06-14T03:54:56;100620.78;;;12.57;79.94
13690;BME280;6917;52.194;9.894;2023-06-14T03:57:23;100615.81;;;12.59;79.43
13690;BME280;6917;52.194;9.894;2023-06-14T03:59:48;100616.56;;;12.33;80.22
13690;BME280;6917;52.194;9.894;2023-06-14T04:02:13;100622.03;;;12.42;81.00
13690;BME280;6917;52.194;9.894;2023-06-14T04:04:43;100620.09;;;12.42;80.94
13690;BME280;6917;52.194;9.894;2023-06-14T04:07:12;100623.84;;;12.46;80.52
13690;BME280;6917;52.194;9.894;2023-06-14T04:09:38;100618.78;;;12.23;80.24
13690;BME280;6917;52.194;9.894;2023-06-14T04:12:05;100621.63;;;12.09;81.07
13690;BME280;6917;52.194;9.894;2023-06-14T04:14:31;100616.81;;;12.06;82.02
13690;BME280;6917;52.194;9.894;2023-06-14T04:16:58;100617.59;;;12.06;82.49
13690;BME280;6917;52.194;9.894;2023-06-14T04:19:23;100626.47;;;12.12;82.38
13690;BME280;6917;52.194;9.894;2023-06-14T04:21:48;100612.22;;;12.32;81.57
13690;BME280;6917;52.194;9.894;2023-06-14T04:24:14;100620.22;;;12.29;81.24
13690;BME280;6917;52.194;9.894;2023-06-14T04:26:42;100628.94;;;12.22;82.05
13690;BME280;6917;52.194;9.894;2023-06-14T04:29:10;100631.94;;;12.12;82.04
13690;BME280;6917;52.194;9.894;2023-06-14T04:31:39;100635.69;;;12.16;82.52
13690;BME280;6917;52.194;9.894;2023-06-14T04:34:04;100641.22;;;12.33;82.52
13690;BME280;6917;52.194;9.894;2023-06-14T04:36:32;100636.09;;;12.49;82.56
13690;BME280;6917;52.194;9.894;2023-06-14T04:39:00;100646.78;;;12.59;82.36
13690;BME280;6917;52.194;9.894;2023-06-14T04:41:26;100648.84;;;12.71;81.64
13690;BME280;6917;52.194;9.894;2023-06-14T04:43:55;100652.09;;;12.81;81.50
13690;BME280;6917;52.194;9.894;2023-06-14T04:46:22;100654.84;;;12.81;81.30
13690;BME280;6917;52.194;9.894;2023-06-14T04:48:47;100662.09;;;12.86;81.81
13690;BME280;6917;52.194;9.894;2023-06-14T04:51:13;100666.00;;;12.94;81.83
13690;BME280;6917;52.194;9.894;2023-06-14T04:53:38;100663.41;;;13.06;81.39
13690;BME280;6917;52.194;9.894;2023-06-14T04:56:03;100660.66;;;13.15;80.99
13690;BME280;6917;52.194;9.894;2023-06-14T04:58:29;100652.47;;;13.23;81.25
13690;BME280;6917;52.194;9.894;2023-06-14T05:00:55;100663.28;;;13.28;80.72
13690;BME280;6917;52.194;9.894;2023-06-14T05:03:22;100658.25;;;13.30;81.19
13690;BME280;6917;52.194;9.894;2023-06-14T05:05:49;100654.72;;;13.47;80.68
13690;BME280;6917;52.194;9.894;2023-06-14T05:08:15;100665.81;;;13.59;80.45
13690;BME280;6917;52.194;9.894;2023-06-14T05:10:41;100672.56;;;13.79;80.52
13690;BME280;6917;52.194;9.894;2023-06-14T05:13:06;100670.16;;;13.78;79.74
13690;BME280;6917;52.194;9.894;2023-06-14T05:15:31;100672.84;;;13.86;79.47
13690;BME280;6917;52.194;9.894;2023-06-14T05:17:57;100670.75;;;13.92;78.79
13690;BME280;6917;52.194;9.894;2023-06-14T05:20:23;100676.25;;;13.92;78.21
13690;BME280;6917;52.194;9.894;2023-06-14T05:22:54;100675.06;;;14.02;78.21
13690;BME280;6917;52.194;9.894;2023-06-14T05:25:20;100681.16;;;14.16;77.71
13690;BME280;6917;52.194;9.894;2023-06-14T05:27:46;100678.72;;;14.23;77.07
13690;BME280;6917;52.194;9.894;2023-06-14T05:30:13;100675.16;;;14.22;77.12
13690;BME280;6917;52.194;9.894;2023-06-14T05:32:39;100672.53;;;14.35;76.58
13690;BME280;6917;52.194;9.894;2023-06-14T05:35:04;100669.09;;;14.38;76.06
13690;BME280;6917;52.194;9.894;2023-06-14T05:37:31;100675.53;;;14.42;75.62
13690;BME280;6917;52.194;9.894;2023-06-14T05:39:56;100671.53;;;14.30;75.34
13690;BME280;6917;52.194;9.894;2023-06-14T05:42:21;100677.47;;;14.50;75.73
13690;BME280;6917;52.194;9.894;2023-06-14T05:44:47;100674.56;;;14.46;74.66
13690;BME280;6917;52.194;9.894;2023-06-14T05:47:12;100681.22;;;14.45;74.74
13690;BME280;6917;52.194;9.894;2023-06-14T05:49:37;100685.19;;;14.56;75.04
13690;BME280;6917;52.194;9.894;2023-06-14T05:52:03;100683.69;;;14.68;74.51
13690;BME280;6917;52.194;9.894;2023-06-14T05:54:28;100684.03;;;14.87;74.59
13690;BME280;6917;52.194;9.894;2023-06-14T05:56:53;100691.63;;;14.90;74.58
13690;BME280;6917;52.194;9.894;2023-06-14T05:59:19;100696.81;;;14.92;74.80
13690;BME280;6917;52.194;9.894;2023-06-14T06:01:44;100695.72;;;14.84;74.37
13690;BME280;6917;52.194;9.894;2023-06-14T06:04:10;100697.81;;;15.08;74.67
13690;BME280;6917;52.194;9.894;2023-06-14T06:06:35;100696.47;;;15.14;73.80
13690;BME280;6917;52.194;9.894;2023-06-14T06:09:01;100684.13;;;15.20;73.10
13690;BME280;6917;52.194;9.894;2023-06-14T06:11:26;100690.16;;;15.34;73.37
13690;BME280;6917;52.194;9.894;2023-06-14T06:13:51;100690.97;;;15.35;73.40
13690;BME280;6917;52.194;9.894;2023-06-14T06:16:17;100698.78;;;15.45;72.97
13690;BME280;6917;52.194;9.894;2023-06-14T06:18:42;100696.25;;;15.61;73.30
13690;BME280;6917;52.194;9.894;2023-06-14T06:21:07;100700.06;;;15.68;73.04
13690;BME280;6917;52.194;9.894;2023-06-14T06:23:32;100692.53;;;15.57;72.28
13690;BME280;6917;52.194;9.894;2023-06-14T06:25:58;100703.53;;;15.77;72.87
13690;BME280;6917;52.194;9.894;2023-06-14T06:28:23;100691.91;;;15.72;71.73
13690;BME280;6917;52.194;9.894;2023-06-14T06:30:48;100698.22;;;15.72;71.48
13690;BME280;6917;52.194;9.894;2023-06-14T06:33:14;100702.25;;;15.63;71.66
13690;BME280;6917;52.194;9.894;2023-06-14T06:35:39;100706.03;;;15.70;72.25
13690;BME280;6917;52.194;9.894;2023-06-14T06:38:05;100708.09;;;15.73;71.40
13690;BME280;6917;52.194;9.894;2023-06-14T06:40:30;100706.53;;;15.85;71.44
13690;BME280;6917;52.194;9.894;2023-06-14T06:42:56;100704.81;;;15.80;71.55
13690;BME280;6917;52.194;9.894;2023-06-14T06:45:21;100709.34;;;16.09;72.08
13690;BME280;6917;52.194;9.894;2023-06-14T06:47:48;100705.13;;;16.24;70.40
13690;BME280;6917;52.194;9.894;2023-06-14T06:50:14;100712.81;;;16.18;69.04
13690;BME280;6917;52.194;9.894;2023-06-14T06:52:39;100718.22;;;16.27;69.51
13690;BME280;6917;52.194;9.894;2023-06-14T06:55:04;100719.72;;;16.24;69.75
13690;BME280;6917;52.194;9.894;2023-06-14T06:57:30;100726.53;;;16.51;69.42
13690;BME280;6917;52.194;9.894;2023-06-14T06:59:55;100714.22;;;16.36;68.03
13690;BME280;6917;52.194;9.894;2023-06-14T07:02:21;100720.31;;;16.54;68.05
13690;BME280;6917;52.194;9.894;2023-06-14T07:04:46;100733.00;;;16.68;68.79
13690;BME280;6917;52.194;9.894;2023-06-14T07:07:11;100726.88;;;16.86;68.92
13690;BME280;6917;52.194;9.894;2023-06-14T07:09:37;100730.69;;;16.94;68.00
13690;BME280;6917;52.194;9.894;2023-06-14T07:12:02;100721.16;;;16.79;66.55
13690;BME280;6917;52.194;9.894;2023-06-14T07:14:28;100727.22;;;16.85;66.90
13690;BME280;6917;52.194;9.894;2023-06-14T07:16:54;100714.81;;;16.79;65.19
13690;BME280;6917;52.194;9.894;2023-06-14T07:19:19;100723.41;;;16.89;65.11
13690;BME280;6917;52.194;9.894;2023-06-14T07:21:45;100724.13;;;16.74;65.09
13690;BME280;6917;52.194;9.894;2023-06-14T07:24:10;100731.69;;;16.77;64.65
13690;BME280;6917;52.194;9.894;2023-06-14T07:26:35;100730.53;;;16.90;64.17
13690;BME280;6917;52.194;9.894;2023-06-14T07:29:01;100737.31;;;17.05;63.69
13690;BME280;6917;52.194;9.894;2023-06-14T07:31:27;100734.03;;;17.28;64.11
13690;BME280;6917;52.194;9.894;2023-06-14T07:33:52;100737.72;;;17.19;63.88
13690;BME280;6917;52.194;9.894;2023-06-14T07:36:17;100729.97;;;16.97;63.89
13690;BME280;6917;52.194;9.894;2023-06-14T07:38:43;100740.47;;;17.32;64.30
13690;BME280;6917;52.194;9.894;2023-06-14T07:41:09;100728.63;;;17.31;63.67
13690;BME280;6917;52.194;9.894;2023-06-14T07:43:34;100738.84;;;17.43;64.36
13690;BME280;6917;52.194;9.894;2023-06-14T07:46:00;100729.94;;;17.21;64.03
13690;BME280;6917;52.194;9.894;2023-06-14T07:48:25;100732.00;;;17.12;65.09
13690;BME280;6917;52.194;9.894;2023-06-14T07:50:51;100744.03;;;17.32;65.67
13690;BME280;6917;52.194;9.894;2023-06-14T07:53:16;100729.25;;;17.12;64.17
13690;BME280;6917;52.194;9.894;2023-06-14T07:55:41;100745.88;;;17.40;64.61
13690;BME280;6917;52.194;9.894;2023-06-14T07:58:08;100725.06;;;17.31;63.74
13690;BME280;6917;52.194;9.894;2023-06-14T08:00:34;100736.09;;;17.31;64.15
13690;BME280;6917;52.194;9.894;2023-06-14T08:03:00;100732.75;;;17.37;63.72
13690;BME280;6917;52.194;9.894;2023-06-14T08:05:26;100738.13;;;17.46;63.63
13690;BME280;6917;52.194;9.894;2023-06-14T08:07:52;100745.34;;;17.91;63.92
13690;BME280;6917;52.194;9.894;2023-06-14T08:10:17;100741.47;;;17.51;63.21
13690;BME280;6917;52.194;9.894;2023-06-14T08:12:43;100749.16;;;17.86;63.48
13690;BME280;6917;52.194;9.894;2023-06-14T08:15:08;100736.56;;;17.73;63.05
13690;BME280;6917;52.194;9.894;2023-06-14T08:17:34;100732.38;;;17.79;63.59
13690;BME280;6917;52.194;9.894;2023-06-14T08:19:59;100739.94;;;17.94;63.46
13690;BME280;6917;52.194;9.894;2023-06-14T08:22:24;100738.81;;;17.83;62.36
13690;BME280;6917;52.194;9.894;2023-06-14T08:24:51;100731.97;;;17.93;61.77
13690;BME280;6917;52.194;9.894;2023-06-14T08:27:18;100730.72;;;18.06;61.06
13690;BME280;6917;52.194;9.894;2023-06-14T08:29:43;100737.09;;;18.22;61.23
13690;BME280;6917;52.194;9.894;2023-06-14T08:32:09;100729.41;;;18.00;60.21
13690;BME280;6917;52.194;9.894;2023-06-14T08:34:34;100744.56;;;18.22;61.93
13690;BME280;6917;52.194;9.894;2023-06-14T08:36:59;100735.50;;;18.53;60.87
13690;BME280;6917;52.194;9.894;2023-06-14T08:39:25;100734.50;;;18.29;60.14
13690;BME280;6917;52.194;9.894;2023-06-14T08:41:52;100729.78;;;18.30;59.44
13690;BME280;6917;52.194;9.894;2023-06-14T08:44:17;100730.84;;;18.09;59.50
13690;BME280;6917;52.194;9.894;2023-06-14T08:46:43;100740.41;;;18.28;60.04
13690;BME280;6917;52.194;9.894;2023-06-14T08:49:12;100741.66;;;18.46;60.75
13690;BME280;6917;52.194;9.894;2023-06-14T08:51:37;100738.59;;;18.35;59.83
13690;BME280;6917;52.194;9.894;2023-06-14T08:54:03;100740.56;;;18.51;59.51
13690;BME280;6917;52.194;9.894;2023-06-14T08:56:30;100739.97;;;18.73;59.18
13690;BME280;6917;52.194;9.894;2023-06-14T08:58:57;100739.38;;;18.99;58.82
13690;BME280;6917;52.194;9.894;2023-06-14T09:01:26;100721.25;;;18.66;56.78
13690;BME280;6917;52.194;9.894;2023-06-14T09:03:52;100737.03;;;18.82;58.22
13690;BME280;6917;52.194;9.894;2023-06-14T09:06:21;100721.47;;;18.61;56.89
13690;BME280;6917;52.194;9.894;2023-06-14T09:08:48;100739.41;;;18.36;57.25
13690;BME280;6917;52.194;9.894;2023-06-14T09:11:16;100732.72;;;18.21;58.02
13690;BME280;6917;52.194;9.894;2023-06-14T09:13:44;100747.53;;;18.44;59.00
13690;BME280;6917;52.194;9.894;2023-06-14T09:16:10;100752.16;;;19.03;59.01
13690;BME280;6917;52.194;9.894;2023-06-14T09:18:36;100746.25;;;19.40;57.26
13690;BME280;6917;52.194;9.894;2023-06-14T09:21:02;100730.22;;;18.79;55.42
13690;BME280;6917;52.194;9.894;2023-06-14T09:23:27;100736.56;;;18.64;56.08
13690;BME280;6917;52.194;9.894;2023-06-14T09:25:53;100737.56;;;18.71;56.65
13690;BME280;6917;52.194;9.894;2023-06-14T09:28:19;100748.16;;;19.20;56.17
13690;BME280;6917;52.194;9.894;2023-06-14T09:30:47;100753.75;;;19.05;56.49
13690;BME280;6917;52.194;9.894;2023-06-14T09:33:17;100748.28;;;19.08;56.23
13690;BME280;6917;52.194;9.894;2023-06-14T09:35:45;100752.03;;;19.35;56.00
13690;BME280;6917;52.194;9.894;2023-06-14T09:38:10;100747.66;;;19.34;55.57
13690;BME280;6917;52.194;9.894;2023-06-14T09:40:36;100746.31;;;19.09;55.27
13690;BME280;6917;52.194;9.894;2023-06-14T09:43:05;100755.97;;;19.34;55.71
13690;BME280;6917;52.194;9.894;2023-06-14T09:45:31;100736.81;;;19.25;55.20
13690;BME280;6917;52.194;9.894;2023-06-14T09:47:58;100735.13;;;19.21;54.46
13690;BME280;6917;52.194;9.894;2023-06-14T09:50:23;100734.25;;;19.17;54.39
13690;BME280;6917;52.194;9.894;2023-06-14T09:52:52;100737.25;;;19.47;54.51
13690;BME280;6917;52.194;9.894;2023-06-14T09:55:20;100736.03;;;19.83;54.61
13690;BME280;6917;52.194;9.894;2023-06-14T09:57:47;100722.19;;;19.83;53.84
13690;BME280;6917;52.194;9.894;2023-06-14T10:00:15;100722.84;;;19.76;53.57
13690;BME280;6917;52.194;9.894;2023-06-14T10:02:46;100718.81;;;19.74;53.00
13690;BME280;6917;52.194;9.894;2023-06-14T10:05:17;100720.56;;;19.82;54.34
13690;BME280;6917;52.194;9.894;2023-06-14T10:07:52;100722.31;;;19.90;53.59
13690;BME280;6917;52.194;9.894;2023-06-14T10:10:18;100735.66;;;20.27;54.67
13690;BME280;6917;52.194;9.894;2023-06-14T10:12:44;100729.50;;;20.60;53.90
13690;BME280;6917;52.194;9.894;2023-06-14T10:15:17;100714.97;;;20.70;52.34
13690;BME280;6917;52.194;9.894;2023-06-14T10:17:50;100715.09;;;20.54;51.46
13690;BME280;6917;52.194;9.894;2023-06-14T10:20:41;100701.13;;;20.01;51.70
13690;BME280;6917;52.194;9.894;2023-06-14T10:23:15;100702.59;;;20.41;51.37
13690;BME280;6917;52.194;9.894;2023-06-14T10:25:42;100706.91;;;20.61;50.82
13690;BME280;6917;52.194;9.894;2023-06-14T10:28:20;100700.38;;;20.50;49.33
13690;BME280;6917;52.194;9.894;2023-06-14T10:31:11;100711.50;;;20.76;50.82
13690;BME280;6917;52.194;9.894;2023-06-14T10:33:49;100701.72;;;21.13;50.52
13690;BME280;6917;52.194;9.894;2023-06-14T10:36:31;100698.31;;;21.26;50.00
13690;BME280;6917;52.194;9.894;2023-06-14T10:39:10;100702.56;;;21.17;50.58
13690;BME280;6917;52.194;9.894;2023-06-14T10:41:38;100706.69;;;21.60;50.62
13690;BME280;6917;52.194;9.894;2023-06-14T10:46:59;100700.06;;;22.09;48.20
13690;BME280;6917;52.194;9.894;2023-06-14T10:49:43;100677.69;;;21.61;47.60
13690;BME280;6917;52.194;9.894;2023-06-14T10:52:11;100667.38;;;21.61;48.81
13690;BME280;6917;52.194;9.894;2023-06-14T10:55:02;100671.72;;;21.59;48.50
13690;BME280;6917;52.194;9.894;2023-06-14T11:00:13;100669.63;;;21.49;48.80
13690;BME280;6917;52.194;9.894;2023-06-14T11:08:22;100653.50;;;20.98;49.47
13690;BME280;6917;52.194;9.894;2023-06-14T11:10:54;100673.81;;;21.35;49.69
13690;BME280;6917;52.194;9.894;2023-06-14T11:13:25;100667.25;;;21.51;49.10
13690;BME280;6917;52.194;9.894;2023-06-14T11:15:50;100669.06;;;21.36;49.18
13690;BME280;6917;52.194;9.894;2023-06-14T11:18:18;100663.31;;;21.55;49.26
13690;BME280;6917;52.194;9.894;2023-06-14T11:20:46;100674.28;;;21.75;50.52
13690;BME280;6917;52.194;9.894;2023-06-14T11:23:11;100656.72;;;21.33;49.21
13690;BME280;6917;52.194;9.894;2023-06-14T11:25:36;100665.66;;;21.50;50.80
13690;BME280;6917;52.194;9.894;2023-06-14T11:28:02;100661.72;;;21.91;50.40
13690;BME280;6917;52.194;9.894;2023-06-14T11:30:27;100654.78;;;21.71;48.28
13690;BME280;6917;52.194;9.894;2023-06-14T11:32:53;100648.75;;;21.69;48.44
13690;BME280;6917;52.194;9.894;2023-06-14T11:35:21;100648.44;;;21.74;48.28
13690;BME280;6917;52.194;9.894;2023-06-14T11:37:48;100639.88;;;21.53;48.21
13690;BME280;6917;52.194;9.894;2023-06-14T11:40:14;100642.66;;;21.23;49.14
13690;BME280;6917;52.194;9.894;2023-06-14T11:42:41;100647.31;;;21.42;49.40
13690;BME280;6917;52.194;9.894;2023-06-14T11:45:08;100646.44;;;21.37;49.20
13690;BME280;6917;52.194;9.894;2023-06-14T11:47:34;100640.69;;;21.23;49.04
13690;BME280;6917;52.194;9.894;2023-06-14T11:50:00;100650.69;;;21.61;50.04
13690;BME280;6917;52.194;9.894;2023-06-14T11:52:29;100636.41;;;21.63;48.99
13690;BME280;6917;52.194;9.894;2023-06-14T11:54:56;100639.72;;;21.76;49.27
13690;BME280;6917;52.194;9.894;2023-06-14T11:57:21;100638.63;;;21.47;49.25
13690;BME280;6917;52.194;9.894;2023-06-14T11:59:46;100639.09;;;21.22;50.00
13690;BME280;6917;52.194;9.894;2023-06-14T12:02:16;100644.88;;;21.10;50.23
13690;BME280;6917;52.194;9.894;2023-06-14T12:04:42;100640.78;;;21.27;50.60
13690;BME280;6917;52.194;9.894;2023-06-14T12:07:11;100646.34;;;21.27;50.57
13690;BME280;6917;52.194;9.894;2023-06-14T12:09:41;100635.38;;;21.11;49.56
13690;BME280;6917;52.194;9.894;2023-06-14T12:12:12;100633.94;;;21.24;49.59
13690;BME280;6917;52.194;9.894;2023-06-14T12:14:37;100629.91;;;21.18;49.01
13690;BME280;6917;52.194;9.894;2023-06-14T12:17:07;100631.47;;;21.16;49.68
13690;BME280;6917;52.194;9.894;2023-06-14T12:19:33;100632.97;;;21.39;50.58
13690;BME280;6917;52.194;9.894;2023-06-14T12:22:03;100635.16;;;21.57;50.17
13690;BME280;6917;52.194;9.894;2023-06-14T12:24:30;100636.09;;;21.72;49.81
13690;BME280;6917;52.194;9.894;2023-06-14T12:26:59;100632.88;;;21.69;49.84
13690;BME280;6917;52.194;9.894;2023-06-14T12:29:25;100637.78;;;21.83;50.51
13690;BME280;6917;52.194;9.894;2023-06-14T12:31:51;100619.44;;;21.75;49.18
13690;BME280;6917;52.194;9.894;2023-06-14T12:34:16;100633.28;;;22.09;49.25
13690;BME280;6917;52.194;9.894;2023-06-14T12:36:41;100624.91;;;22.60;49.40
13690;BME280;6917;52.194;9.894;2023-06-14T12:39:10;100615.56;;;22.93;47.77
13690;BME280;6917;52.194;9.894;2023-06-14T12:41:35;100622.13;;;23.43;48.52
13690;BME280;6917;52.194;9.894;2023-06-14T12:44:01;100616.63;;;23.76;47.02
13690;BME280;6917;52.194;9.894;2023-06-14T12:46:30;100609.59;;;22.95;47.03
13690;BME280;6917;52.194;9.894;2023-06-14T12:48:56;100607.13;;;22.17;46.76
13690;BME280;6917;52.194;9.894;2023-06-14T12:51:21;100610.84;;;21.91;48.02
13690;BME280;6917;52.194;9.894;2023-06-14T12:53:47;100624.53;;;22.10;48.67
13690;BME280;6917;52.194;9.894;2023-06-14T12:56:14;100615.53;;;21.83;48.62
13690;BME280;6917;52.194;9.894;2023-06-14T12:58:39;100612.59;;;22.06;48.74
13690;BME280;6917;52.194;9.894;2023-06-14T13:01:05;100609.81;;;22.65;48.15
13690;BME280;6917;52.194;9.894;2023-06-14T13:03:30;100610.03;;;23.00;46.94
13690;BME280;6917;52.194;9.894;2023-06-14T13:05:56;100610.94;;;23.33;47.58
13690;BME280;6917;52.194;9.894;2023-06-14T13:08:21;100600.97;;;23.35;47.73
13690;BME280;6917;52.194;9.894;2023-06-14T13:10:47;100599.75;;;23.26;46.54